createdAt,value
2018-10-19T00:01:16.251Z,9.70
2018-10-19T00:03:44.423Z,9.70
2018-10-19T00:06:12.583Z,9.60
2018-10-19T00:08:40.743Z,9.70
2018-10-19T00:11:09.008Z,9.60
2018-10-19T00:13:37.136Z,9.60
2018-10-19T00:16:05.321Z,9.50
2018-10-19T00:18:33.694Z,9.60
2018-10-19T00:21:02.125Z,9.50
2018-10-19T00:23:30.287Z,9.50
2018-10-19T00:25:58.470Z,9.50
2018-10-19T00:28:26.838Z,9.40
2018-10-19T00:30:55.015Z,9.40
2018-10-19T00:33:23.203Z,9.40
2018-10-19T00:35:51.417Z,9.40
2018-10-19T00:38:19.631Z,9.30
2018-10-19T00:40:47.819Z,9.30
2018-10-19T00:43:16.008Z,9.30
2018-10-19T00:45:45.767Z,9.20
2018-10-19T00:48:18.126Z,9.20
2018-10-19T00:50:46.305Z,9.30
2018-10-19T00:53:14.948Z,9.40
2018-10-19T00:55:43.065Z,9.40
2018-10-19T00:58:11.251Z,9.40
2018-10-19T01:00:40.622Z,9.30
2018-10-19T01:03:09.321Z,9.20
2018-10-19T01:05:38.400Z,9.10
2018-10-19T01:08:07.095Z,9.10
2018-10-19T01:10:35.262Z,9.10
2018-10-19T01:13:03.602Z,9.00
2018-10-19T01:15:31.840Z,9.00
2018-10-19T01:18:00.298Z,9.00
2018-10-19T01:20:28.666Z,8.90
2018-10-19T01:22:56.864Z,8.90
2018-10-19T01:25:24.999Z,8.90
2018-10-19T01:27:53.163Z,8.90
2018-10-19T01:30:21.328Z,8.80
2018-10-19T01:32:49.494Z,8.80
2018-10-19T01:35:17.654Z,8.80
2018-10-19T01:37:45.813Z,8.90
2018-10-19T01:40:14.247Z,8.80
2018-10-19T01:42:42.411Z,8.80
2018-10-19T01:45:11.755Z,8.80
2018-10-19T01:47:40.574Z,8.80
2018-10-19T01:50:09.610Z,8.70
2018-10-19T01:52:38.108Z,8.70
2018-10-19T01:55:06.293Z,8.70
2018-10-19T01:57:34.472Z,8.70
2018-10-19T02:00:02.643Z,8.70
2018-10-19T02:02:30.986Z,8.60
2018-10-19T02:04:59.183Z,8.60
2018-10-19T02:07:27.314Z,8.60
2018-10-19T02:09:55.479Z,8.60
2018-10-19T02:12:23.648Z,8.60
2018-10-19T02:14:51.843Z,8.60
2018-10-19T02:17:20.015Z,8.50
2018-10-19T02:19:48.182Z,8.50
2018-10-19T02:22:16.338Z,8.40
2018-10-19T02:24:44.511Z,8.40
2018-10-19T02:27:12.743Z,8.40
2018-10-19T02:29:40.924Z,8.50
2018-10-19T02:32:09.165Z,8.50
2018-10-19T02:34:37.452Z,8.60
2018-10-19T02:37:05.958Z,8.50
2018-10-19T02:39:34.147Z,8.40
2018-10-19T02:42:02.586Z,8.40
2018-10-19T02:44:31.288Z,8.30
2018-10-19T02:46:59.535Z,8.30
2018-10-19T02:49:27.931Z,8.30
2018-10-19T02:51:56.107Z,8.30
2018-10-19T02:54:24.295Z,8.30
2018-10-19T02:56:52.483Z,8.40
2018-10-19T02:59:20.667Z,8.40
2018-10-19T03:01:48.842Z,8.30
2018-10-19T03:04:17.039Z,8.20
2018-10-19T03:06:45.214Z,8.20
2018-10-19T03:09:13.498Z,8.20
2018-10-19T03:11:41.688Z,8.20
2018-10-19T03:14:09.814Z,8.10
2018-10-19T03:16:37.979Z,8.10
2018-10-19T03:19:06.138Z,8.10
2018-10-19T03:21:34.302Z,8.20
2018-10-19T03:24:02.478Z,8.20
2018-10-19T03:26:30.639Z,8.10
2018-10-19T03:28:58.811Z,8.10
2018-10-19T03:31:27.019Z,8.10
2018-10-19T03:33:55.119Z,8.10
2018-10-19T03:36:23.286Z,8.10
2018-10-19T03:38:51.443Z,8.10
2018-10-19T03:41:19.639Z,8.10
2018-10-19T03:43:47.794Z,8.10
2018-10-19T03:46:15.972Z,8.00
2018-10-19T03:48:44.168Z,8.00
2018-10-19T03:51:12.459Z,7.90
2018-10-19T03:53:40.573Z,7.90
2018-10-19T03:56:08.727Z,7.90
2018-10-19T03:58:36.883Z,7.90
2018-10-19T04:01:05.347Z,7.90
2018-10-19T04:03:33.564Z,7.90
2018-10-19T04:06:01.683Z,8.00
2018-10-19T04:08:29.851Z,8.00
2018-10-19T04:10:58.080Z,8.00
2018-10-19T04:13:26.220Z,8.00
2018-10-19T04:15:54.398Z,7.90
2018-10-19T04:18:22.591Z,7.90
2018-10-19T04:20:50.767Z,7.80
2018-10-19T04:23:18.956Z,7.80
2018-10-19T04:25:47.158Z,7.80
2018-10-19T04:28:15.380Z,7.80
2018-10-19T04:30:43.597Z,7.80
2018-10-19T04:33:11.892Z,7.80
2018-10-19T04:35:39.990Z,7.80
2018-10-19T04:38:08.182Z,7.80
2018-10-19T04:40:36.368Z,7.80
2018-10-19T04:43:05.162Z,7.70
2018-10-19T04:45:33.355Z,7.70
2018-10-19T04:48:01.547Z,7.70
2018-10-19T04:50:29.738Z,7.70
2018-10-19T04:52:58.073Z,7.70
2018-10-19T04:55:26.187Z,7.70
2018-10-19T04:57:54.370Z,7.70
2018-10-19T05:00:22.789Z,7.70
2018-10-19T05:02:52.638Z,7.70
2018-10-19T05:05:21.161Z,7.70
2018-10-19T05:07:49.176Z,7.70
2018-10-19T05:10:17.362Z,7.60
2018-10-19T05:12:45.585Z,7.60
2018-10-19T05:15:13.711Z,7.60
2018-10-19T05:17:41.954Z,7.60
2018-10-19T05:20:11.426Z,7.60
2018-10-19T05:22:39.600Z,7.60
2018-10-19T05:25:09.644Z,7.70
2018-10-19T05:27:37.827Z,7.80
2018-10-19T05:30:07.528Z,7.80
2018-10-19T05:32:35.711Z,7.80
2018-10-19T05:35:04.099Z,7.90
2018-10-19T05:37:32.588Z,8.00
2018-10-19T05:40:01.348Z,8.10
2018-10-19T05:42:29.548Z,8.10
2018-10-19T05:44:57.730Z,8.20
2018-10-19T05:47:26.067Z,8.30
2018-10-19T05:49:54.343Z,8.40
2018-10-19T05:52:22.731Z,8.40
2018-10-19T05:54:51.038Z,8.50
2018-10-19T05:57:19.211Z,8.60
2018-10-19T05:59:47.418Z,8.60
2018-10-19T06:02:15.688Z,8.70
2018-10-19T06:04:43.876Z,8.80
2018-10-19T06:07:12.083Z,8.80
2018-10-19T06:09:40.275Z,8.90
2018-10-19T06:12:08.454Z,8.90
2018-10-19T06:14:36.614Z,9.00
2018-10-19T06:17:05.279Z,9.10
2018-10-19T06:19:33.398Z,9.10
2018-10-19T06:22:01.565Z,9.10
2018-10-19T06:24:29.723Z,9.10
2018-10-19T06:26:57.875Z,9.30
2018-10-19T06:29:26.045Z,9.30
2018-10-19T06:31:54.233Z,9.50
2018-10-19T06:34:22.370Z,9.60
2018-10-19T06:36:50.526Z,9.60
2018-10-19T06:39:18.707Z,9.50
2018-10-19T06:41:46.868Z,9.40
2018-10-19T06:44:15.092Z,9.50
2018-10-19T06:46:43.245Z,9.60
2018-10-19T06:49:11.494Z,9.70
2018-10-19T06:51:39.616Z,9.70
2018-10-19T06:54:07.854Z,9.70
2018-10-19T06:56:36.010Z,9.70
2018-10-19T06:59:04.217Z,9.70
2018-10-19T07:01:32.590Z,9.80
2018-10-19T07:04:00.745Z,9.80
2018-10-19T07:06:28.910Z,9.70
2018-10-19T07:08:57.075Z,9.70
2018-10-19T07:11:25.271Z,9.80
2018-10-19T07:13:53.457Z,9.80
2018-10-19T07:16:21.627Z,9.90
2018-10-19T07:18:50.081Z,9.90
2018-10-19T07:21:18.806Z,10.10
2018-10-19T07:23:46.989Z,10.20
2018-10-19T07:26:15.221Z,10.20
2018-10-19T07:28:43.359Z,10.10
2018-10-19T07:31:11.596Z,10.10
2018-10-19T07:33:39.820Z,10.30
2018-10-19T07:36:08.032Z,10.40
2018-10-19T07:38:36.235Z,10.40
2018-10-19T07:41:04.455Z,10.40
2018-10-19T07:43:32.614Z,10.50
2018-10-19T07:46:00.842Z,10.50
2018-10-19T07:48:29.208Z,10.40
2018-10-19T07:50:57.379Z,10.40
2018-10-19T07:53:25.763Z,10.50
2018-10-19T07:55:53.984Z,10.60
2018-10-19T07:58:22.158Z,10.60
2018-10-19T08:00:50.499Z,10.60
2018-10-19T08:03:18.695Z,10.70
2018-10-19T08:05:46.883Z,10.70
2018-10-19T08:08:15.119Z,10.80
2018-10-19T08:10:43.394Z,10.80
2018-10-19T08:13:11.612Z,10.90
2018-10-19T08:15:39.817Z,11.00
2018-10-19T08:18:07.999Z,11.00
2018-10-19T08:20:36.167Z,11.20
2018-10-19T08:23:04.361Z,11.30
2018-10-19T08:25:32.531Z,11.30
2018-10-19T08:28:00.707Z,11.40
2018-10-19T08:30:28.879Z,11.50
2018-10-19T08:32:57.067Z,11.60
2018-10-19T08:35:25.245Z,11.70
2018-10-19T08:37:53.485Z,11.60
2018-10-19T08:40:21.672Z,11.60
2018-10-19T08:42:49.855Z,11.70
2018-10-19T08:45:18.092Z,11.80
2018-10-19T08:47:46.328Z,11.80
2018-10-19T08:50:14.446Z,11.80
2018-10-19T08:52:42.648Z,11.90
2018-10-19T08:55:10.996Z,12.00
2018-10-19T08:57:39.118Z,12.00
2018-10-19T09:00:08.922Z,12.00
2018-10-19T09:02:37.072Z,12.10
2018-10-19T09:05:05.748Z,12.10
2018-10-19T09:07:33.950Z,12.10
2018-10-19T09:10:02.126Z,12.20
2018-10-19T09:12:30.399Z,12.20
2018-10-19T09:15:00.830Z,12.30
2018-10-19T09:17:28.970Z,12.40
2018-10-19T09:19:57.146Z,12.40
2018-10-19T09:22:25.330Z,12.60
2018-10-19T09:24:53.987Z,12.70
2018-10-19T09:27:22.182Z,12.80
2018-10-19T09:29:50.363Z,12.90
2018-10-19T09:32:18.527Z,12.90
2018-10-19T09:34:46.746Z,12.90
2018-10-19T09:37:15.173Z,13.00
2018-10-19T09:39:43.403Z,13.10
2018-10-19T09:42:11.866Z,13.00
2018-10-19T09:44:40.204Z,13.10
2018-10-19T09:47:08.735Z,13.10
2018-10-19T09:49:36.854Z,13.30
2018-10-19T09:52:05.039Z,13.50
2018-10-19T09:54:33.219Z,13.60
2018-10-19T09:57:01.463Z,13.60
2018-10-19T09:59:29.590Z,13.80
2018-10-19T10:01:57.805Z,13.90
2018-10-19T10:04:25.954Z,14.10
2018-10-19T10:06:54.161Z,14.30
2018-10-19T10:09:22.319Z,14.30
2018-10-19T10:11:50.763Z,14.30
2018-10-19T10:14:18.930Z,14.50
2018-10-19T10:16:47.094Z,14.50
2018-10-19T10:19:15.317Z,14.70
2018-10-19T10:21:43.466Z,15.00
2018-10-19T10:24:11.659Z,15.30
2018-10-19T10:26:39.837Z,15.40
2018-10-19T10:29:08.591Z,15.40
2018-10-19T10:31:36.898Z,15.80
2018-10-19T10:34:05.353Z,15.90
2018-10-19T10:36:33.474Z,15.80
2018-10-19T10:39:01.809Z,15.80
2018-10-19T10:41:29.802Z,15.90
2018-10-19T10:46:56.866Z,16.30
2018-10-19T10:49:24.987Z,16.40
2018-10-19T10:51:53.144Z,16.80
2018-10-19T10:54:21.302Z,17.00
2018-10-19T10:56:49.749Z,17.20
2018-10-19T10:59:17.921Z,17.40
2018-10-19T11:01:46.093Z,17.50
2018-10-19T11:04:14.410Z,17.70
2018-10-19T11:06:42.466Z,17.70
2018-10-19T11:09:11.580Z,17.70
2018-10-19T11:11:39.766Z,17.80
2018-10-19T11:14:07.922Z,18.00
2018-10-19T11:16:36.087Z,18.30
2018-10-19T11:19:04.298Z,18.20
2018-10-19T11:21:32.472Z,18.50
2018-10-19T11:24:00.697Z,18.20
2018-10-19T11:26:28.824Z,18.50
2018-10-19T11:28:57.003Z,18.70
2018-10-19T11:31:25.158Z,18.60
2018-10-19T11:33:53.326Z,18.50
2018-10-19T11:36:21.775Z,18.30
2018-10-19T11:38:49.940Z,18.60
2018-10-19T11:41:18.119Z,18.80
2018-10-19T11:43:46.292Z,19.00
2018-10-19T11:46:14.510Z,19.30
2018-10-19T11:48:42.642Z,19.50
2018-10-19T11:51:10.779Z,19.60
2018-10-19T11:53:38.942Z,19.60
2018-10-19T11:56:07.157Z,19.60
2018-10-19T11:58:35.353Z,19.80
2018-10-19T12:01:03.597Z,19.70
2018-10-19T12:03:31.746Z,19.80
2018-10-19T12:05:59.891Z,20.00
2018-10-19T12:08:28.099Z,20.20
2018-10-19T12:10:56.255Z,20.40
2018-10-19T12:13:24.412Z,20.60
2018-10-19T12:15:52.803Z,20.80
2018-10-19T12:18:20.968Z,20.80
2018-10-19T12:20:49.147Z,20.80
2018-10-19T12:23:17.301Z,20.80
2018-10-19T12:25:45.478Z,20.70
2018-10-19T12:28:13.643Z,20.80
2018-10-19T12:30:41.810Z,20.80
2018-10-19T12:33:10.083Z,20.90
2018-10-19T12:35:38.275Z,21.00
2018-10-19T12:38:06.392Z,21.10
2018-10-19T12:40:34.558Z,21.10
2018-10-19T12:43:02.755Z,21.20
2018-10-19T12:46:41.280Z,21.40
2018-10-19T12:49:10.185Z,21.50
2018-10-19T12:51:38.643Z,21.40
2018-10-19T12:54:07.052Z,21.50
2018-10-19T12:56:35.126Z,21.60
2018-10-19T12:59:03.315Z,21.80
2018-10-19T13:01:32.059Z,22.00
2018-10-19T13:04:00.963Z,22.20
2018-10-19T13:06:29.131Z,22.30
2018-10-19T13:08:57.309Z,22.40
2018-10-19T13:11:26.187Z,22.50
2018-10-19T13:13:54.443Z,22.70
2018-10-19T13:16:22.833Z,22.80
2018-10-19T13:18:50.897Z,22.80
2018-10-19T13:21:19.310Z,22.90
2018-10-19T13:23:47.471Z,22.90
2018-10-19T13:26:15.631Z,22.90
2018-10-19T13:28:44.395Z,23.10
2018-10-19T13:31:12.559Z,22.90
2018-10-19T13:33:40.714Z,23.00
2018-10-19T13:36:08.944Z,22.90
2018-10-19T13:38:37.081Z,22.80
2018-10-19T13:41:05.279Z,22.90
2018-10-19T13:43:33.544Z,22.90
2018-10-19T13:46:01.742Z,23.00
2018-10-19T13:48:29.932Z,23.10
2018-10-19T13:50:58.140Z,23.10
2018-10-19T13:53:26.319Z,23.20
2018-10-19T13:55:54.532Z,23.10
2018-10-19T13:58:22.732Z,23.10
2018-10-19T14:00:50.914Z,22.90
2018-10-19T14:03:19.098Z,22.80
2018-10-19T14:05:47.379Z,22.50
2018-10-19T14:08:15.503Z,22.40
2018-10-19T14:10:43.703Z,22.20
2018-10-19T14:13:11.904Z,21.90
2018-10-19T14:15:40.144Z,21.70
2018-10-19T14:18:08.381Z,21.60
2018-10-19T14:20:36.612Z,21.40
2018-10-19T14:23:05.306Z,21.20
2018-10-19T14:25:33.448Z,21.10
2018-10-19T14:28:01.639Z,21.00
2018-10-19T14:30:30.176Z,21.00
2018-10-19T14:32:58.413Z,21.00
2018-10-19T14:35:26.574Z,21.10
2018-10-19T14:37:54.865Z,21.20
2018-10-19T14:40:23.063Z,21.20
2018-10-19T14:42:51.608Z,21.20
2018-10-19T14:45:19.783Z,21.20
2018-10-19T14:47:48.430Z,21.30
2018-10-19T14:50:17.826Z,21.20
2018-10-19T14:52:46.000Z,21.20
2018-10-19T14:55:15.478Z,21.10
2018-10-19T14:57:43.645Z,21.10
2018-10-19T15:00:14.275Z,21.10
2018-10-19T15:02:42.654Z,21.00
2018-10-19T15:05:12.240Z,20.90
2018-10-19T15:07:40.547Z,20.80
2018-10-19T15:10:11.223Z,20.70
2018-10-19T15:12:39.558Z,20.50
2018-10-19T15:15:08.549Z,20.30
2018-10-19T15:17:36.688Z,20.10
2018-10-19T15:20:05.214Z,19.90
2018-10-19T15:22:33.882Z,19.90
2018-10-19T15:25:02.039Z,19.70
2018-10-19T15:27:30.210Z,19.60
2018-10-19T15:29:58.648Z,19.40
2018-10-19T15:32:26.755Z,19.20
2018-10-19T15:34:55.361Z,19.10
2018-10-19T15:37:23.975Z,18.90
2018-10-19T15:39:52.143Z,18.80
2018-10-19T15:42:20.618Z,18.80
2018-10-19T15:44:48.875Z,18.70
2018-10-19T15:47:17.110Z,18.50
2018-10-19T15:49:45.299Z,18.30
2018-10-19T15:52:13.492Z,18.10
2018-10-19T15:54:41.675Z,17.90
2018-10-19T15:57:09.889Z,17.80
2018-10-19T15:59:38.055Z,17.60
2018-10-19T16:02:06.255Z,17.40
2018-10-19T16:04:34.871Z,17.30
2018-10-19T16:07:03.063Z,17.20
2018-10-19T16:09:31.295Z,17.00
2018-10-19T16:11:59.523Z,16.80
2018-10-19T16:14:27.675Z,16.80
2018-10-19T16:16:55.867Z,16.70
2018-10-19T16:19:24.075Z,16.50
2018-10-19T16:21:52.310Z,16.40
2018-10-19T16:24:20.514Z,16.30
2018-10-19T16:26:48.716Z,16.10
2018-10-19T16:29:16.895Z,16.00
2018-10-19T16:31:45.371Z,15.80
2018-10-19T16:34:13.567Z,15.70
2018-10-19T16:36:41.771Z,15.60
2018-10-19T16:39:10.773Z,15.50
2018-10-19T16:41:38.902Z,15.40
2018-10-19T16:44:07.094Z,15.30
2018-10-19T16:46:35.332Z,15.30
2018-10-19T16:49:03.513Z,15.20
2018-10-19T16:51:31.714Z,15.00
2018-10-19T16:53:59.961Z,14.90
2018-10-19T16:56:28.160Z,14.90
2018-10-19T16:58:56.352Z,14.80
2018-10-19T17:01:24.903Z,14.70
2018-10-19T17:03:53.137Z,14.60
2018-10-19T17:06:21.331Z,14.50
2018-10-19T17:08:49.545Z,14.50
2018-10-19T17:11:17.731Z,14.40
2018-10-19T17:13:45.919Z,14.30
2018-10-19T17:16:14.124Z,14.30
2018-10-19T17:18:42.307Z,14.20
2018-10-19T17:21:10.817Z,14.10
2018-10-19T17:23:38.970Z,14.00
2018-10-19T17:26:07.630Z,13.90
2018-10-19T17:28:35.822Z,13.90
2018-10-19T17:31:04.080Z,13.80
2018-10-19T17:33:32.570Z,13.70
2018-10-19T17:36:00.720Z,13.70
2018-10-19T17:38:28.903Z,13.60
2018-10-19T17:40:57.111Z,13.50
2018-10-19T17:43:25.386Z,13.50
2018-10-19T17:45:53.826Z,13.50
2018-10-19T17:48:22.049Z,13.50
2018-10-19T17:50:50.727Z,13.40
2018-10-19T17:53:18.932Z,13.30
2018-10-19T17:55:47.127Z,13.20
2018-10-19T17:58:15.323Z,13.20
2018-10-19T18:00:43.864Z,13.20
2018-10-19T18:03:12.696Z,13.10
2018-10-19T18:05:40.807Z,13.10
2018-10-19T18:08:09.013Z,13.00
2018-10-19T18:10:37.206Z,13.00
2018-10-19T18:13:05.996Z,13.00
2018-10-19T18:15:34.266Z,12.90
2018-10-19T18:18:02.473Z,12.90
2018-10-19T18:20:30.691Z,12.80
2018-10-19T18:22:59.005Z,12.80
2018-10-19T18:25:27.353Z,12.70
2018-10-19T18:27:55.568Z,12.70
2018-10-19T18:30:23.772Z,12.70
2018-10-19T18:32:51.984Z,12.60
2018-10-19T18:35:20.216Z,12.50
2018-10-19T18:37:48.362Z,12.50
2018-10-19T18:40:16.550Z,12.40
2018-10-19T18:42:44.743Z,12.40
2018-10-19T18:45:12.930Z,12.40
2018-10-19T18:47:41.101Z,12.40
2018-10-19T18:50:09.778Z,12.30
2018-10-19T18:52:38.400Z,12.30
2018-10-19T18:55:06.797Z,12.30
2018-10-19T18:57:34.987Z,12.30
2018-10-19T19:00:03.483Z,12.20
2018-10-19T19:02:31.679Z,12.20
2018-10-19T19:04:59.884Z,12.10
2018-10-19T19:07:29.059Z,12.10
2018-10-19T19:10:02.676Z,12.10
2018-10-19T19:12:30.834Z,12.00
2018-10-19T19:14:59.003Z,11.90
2018-10-19T19:17:27.170Z,11.90
2018-10-19T19:20:00.616Z,11.80
2018-10-19T19:22:28.764Z,11.80
2018-10-19T19:25:02.363Z,11.70
2018-10-19T19:27:30.530Z,11.70
2018-10-19T19:29:58.732Z,11.70
2018-10-19T19:32:26.976Z,11.70
2018-10-19T19:34:55.504Z,11.70
2018-10-19T19:37:23.623Z,11.60
2018-10-19T19:39:51.975Z,11.60
2018-10-19T19:42:25.656Z,11.50
2018-10-19T19:44:53.818Z,11.50
2018-10-19T19:47:27.508Z,11.50
2018-10-19T19:50:00.055Z,11.40
2018-10-19T19:52:28.564Z,11.40
2018-10-19T19:54:56.790Z,11.40
2018-10-19T19:57:24.978Z,11.30
2018-10-19T19:59:53.558Z,11.30
2018-10-19T20:02:21.783Z,11.20
2018-10-19T20:04:50.319Z,11.10
2018-10-19T20:07:18.510Z,11.10
2018-10-19T20:09:47.129Z,11.10
2018-10-19T20:12:15.490Z,11.10
2018-10-19T20:14:43.678Z,11.10
2018-10-19T20:17:11.960Z,11.10
2018-10-19T20:19:40.127Z,11.10
2018-10-19T20:22:08.335Z,11.10
2018-10-19T20:24:36.526Z,11.00
2018-10-19T20:27:04.991Z,11.00
2018-10-19T20:29:33.187Z,11.00
2018-10-19T20:32:01.894Z,10.90
2018-10-19T20:34:30.127Z,10.80
2018-10-19T20:36:58.444Z,10.80
2018-10-19T20:39:26.672Z,10.80
2018-10-19T20:41:54.948Z,10.80
2018-10-19T20:44:23.163Z,10.80
2018-10-19T20:46:51.683Z,10.80
2018-10-19T20:49:19.976Z,10.70
2018-10-19T20:51:48.154Z,10.70
2018-10-19T20:54:16.576Z,10.70
2018-10-19T20:56:44.765Z,10.70
2018-10-19T20:59:13.047Z,10.70
2018-10-19T21:01:41.180Z,10.60
2018-10-19T21:04:09.372Z,10.60
2018-10-19T21:06:37.875Z,10.50
2018-10-19T21:09:08.115Z,10.60
2018-10-19T21:11:36.523Z,10.60
2018-10-19T21:14:05.208Z,10.50
2018-10-19T21:16:33.364Z,10.50
2018-10-19T21:19:01.617Z,10.40
2018-10-19T21:21:29.923Z,10.40
2018-10-19T21:23:58.254Z,10.30
2018-10-19T21:26:26.710Z,10.30
2018-10-19T21:28:55.785Z,10.20
2018-10-19T21:31:23.992Z,10.20
2018-10-19T21:33:52.183Z,10.20
2018-10-19T21:36:20.412Z,10.20
2018-10-19T21:38:49.311Z,10.30
2018-10-19T21:41:17.496Z,10.20
2018-10-19T21:43:45.678Z,10.20
2018-10-19T21:46:13.842Z,10.10
2018-10-19T21:48:41.998Z,10.10
2018-10-19T21:51:10.168Z,10.00
2018-10-19T21:53:38.428Z,10.00
2018-10-19T21:56:06.628Z,9.90
2018-10-19T21:58:34.751Z,9.90
2018-10-19T22:01:02.906Z,9.90
2018-10-19T22:03:31.100Z,9.90
2018-10-19T22:05:59.273Z,9.90
2018-10-19T22:08:27.470Z,9.90
2018-10-19T22:10:55.629Z,9.90
2018-10-19T22:13:23.754Z,9.90
2018-10-19T22:15:51.923Z,9.80
2018-10-19T22:18:20.339Z,9.80
2018-10-19T22:20:48.499Z,9.70
2018-10-19T22:23:16.805Z,9.70
2018-10-19T22:25:44.806Z,9.70
2018-10-19T22:28:12.963Z,9.60
2018-10-19T22:30:41.143Z,9.60
2018-10-19T22:33:09.293Z,9.60
2018-10-19T22:35:37.455Z,9.60
2018-10-19T22:38:05.756Z,9.60
2018-10-19T22:40:34.234Z,9.60
2018-10-19T22:43:02.422Z,9.50
2018-10-19T22:45:30.587Z,9.50
2018-10-19T22:47:58.735Z,9.40
2018-10-19T22:50:27.199Z,9.50
2018-10-19T22:52:55.354Z,9.50
2018-10-19T22:55:23.538Z,9.40
2018-10-19T22:57:51.687Z,9.40
2018-10-19T23:00:19.847Z,9.40
2018-10-19T23:02:48.323Z,9.30
2018-10-19T23:05:16.562Z,9.30
2018-10-19T23:07:44.664Z,9.30
2018-10-19T23:10:12.846Z,9.30
2018-10-19T23:12:41.020Z,9.30
2018-10-19T23:15:09.285Z,9.30
2018-10-19T23:17:37.459Z,9.30
2018-10-19T23:20:05.895Z,9.30
2018-10-19T23:22:34.270Z,9.30
2018-10-19T23:25:02.675Z,9.30
2018-10-19T23:27:30.808Z,9.30
2018-10-19T23:29:58.959Z,9.30
2018-10-19T23:32:27.127Z,9.20
2018-10-19T23:34:55.294Z,9.30
2018-10-19T23:37:23.484Z,9.30
2018-10-19T23:39:51.690Z,9.30
2018-10-19T23:42:20.087Z,9.30
2018-10-19T23:44:48.388Z,9.30
2018-10-19T23:47:16.783Z,9.20
2018-10-19T23:49:44.900Z,9.20
2018-10-19T23:52:13.068Z,9.10
2018-10-19T23:54:41.489Z,9.10
2018-10-19T23:57:09.651Z,9.10
2018-10-19T23:59:37.807Z,9.10
